Time;durP1;ratioP1;P1;durP2;ratioP2;P2;SDS_P1;SDS_P2;PMS_P1;PMS_P2;Temp;Humidity;BMP_temperature;BMP_pressure;BME280_temperature;BME280_humidity;BME280_pressure;Samples;Min_cycle;Max_cycle;Signal;HPM_P1;HPM_P2
2022/09/05 00:01:08;;;;;;;10.20;3.05;;;;;;;31.64;33.45;100721.28;5053604;28;20098;-46
2022/09/05 00:03:52;;;;;;;9.27;3.42;;;;;;;31.57;32.77;100723.84;5053580;28;20579;-47
2022/09/05 00:06:21;;;;;;;10.05;3.65;;;;;;;31.10;33.17;100716.09;5049985;28;20037;-46
2022/09/05 00:09:05;;;;;;;11.35;3.75;;;;;;;31.23;33.76;100714.09;5061070;28;20028;-46
2022/09/05 00:11:48;;;;;;;11.40;3.90;;;;;;;30.74;34.12;100712.19;5033602;28;20029;-47
2022/09/05 00:14:46;;;;;;;13.32;3.78;;;;;;;30.38;34.78;100706.63;5033270;28;20375;-46
2022/09/05 00:17:27;;;;;;;9.35;3.33;;;;;;;30.05;35.43;100706.63;5021706;28;20525;-49
2022/09/05 00:20:10;;;;;;;8.88;3.20;;;;;;;29.75;36.46;100708.69;5034156;28;20048;-46
2022/09/05 00:22:55;;;;;;;41.08;5.32;;;;;;;29.21;36.81;100712.19;5033196;28;20450;-48
2022/09/05 00:25:49;;;;;;;9.68;3.78;;;;;;;29.13;36.74;100700.06;5042485;28;20029;-49
2022/09/05 00:28:40;;;;;;;12.38;4.00;;;;;;;28.98;36.11;100702.59;5053343;28;20072;-53
2022/09/05 00:31:16;;;;;;;17.70;4.00;;;;;;;28.82;36.49;100705.09;5051572;28;20034;-48
2022/09/05 00:34:03;;;;;;;13.70;3.55;;;;;;;28.41;36.85;100701.06;5052793;28;20035;-47
2022/09/05 00:36:54;;;;;;;16.38;4.30;;;;;;;28.31;37.94;100701.38;5034748;28;20128;-48
2022/09/05 00:39:34;;;;;;;6.50;2.85;;;;;;;28.41;38.16;100701.06;5035071;28;21068;-46
2022/09/05 00:42:16;;;;;;;10.50;3.80;;;;;;;28.75;37.54;100702.03;5063823;28;20143;-47
2022/09/05 00:44:58;;;;;;;8.40;3.20;;;;;;;28.68;37.20;100692.34;5065005;28;20048;-46
2022/09/05 00:47:46;;;;;;;8.82;2.83;;;;;;;28.83;36.07;100695.69;5052764;28;20021;-46
2022/09/05 00:50:55;;;;;;;8.60;2.92;;;;;;;28.44;36.22;100694.09;5045728;28;20486;-48
2022/09/05 00:53:44;;;;;;;11.55;2.92;;;;;;;28.37;36.38;100689.91;5026299;28;20045;-46
2022/09/05 00:56:20;;;;;;;13.07;4.18;;;;;;;28.14;36.58;100696.72;5042817;28;20090;-45
2022/09/05 00:59:23;;;;;;;28.15;4.90;;;;;;;27.86;37.23;100694.34;5061165;28;20033;-49
2022/09/05 01:02:04;;;;;;;8.43;3.60;;;;;;;28.11;37.70;100689.16;5052537;28;20036;-47
2022/09/05 01:04:48;;;;;;;12.80;3.17;;;;;;;27.82;37.43;100689.84;5040022;28;20037;-47
2022/09/05 01:07:26;;;;;;;18.65;4.25;;;;;;;27.44;38.57;100687.75;5052387;28;20037;-48
2022/09/05 01:10:21;;;;;;;10.85;3.22;;;;;;;27.31;39.02;100683.19;5051988;28;20041;-48
2022/09/05 01:13:15;;;;;;;11.95;3.17;;;;;;;27.04;39.40;100682.34;5051094;28;20036;-47
2022/09/05 01:16:20;;;;;;;10.98;3.00;;;;;;;27.19;39.47;100675.59;5048498;28;20533;-48
2022/09/05 01:19:01;;;;;;;12.25;3.83;;;;;;;27.04;39.36;100679.59;5052404;28;20033;-47
2022/09/05 01:21:48;;;;;;;11.02;2.88;;;;;;;26.82;40.17;100679.69;5052144;28;20033;-48
2022/09/05 01:24:32;;;;;;;7.60;3.25;;;;;;;26.77;40.04;100674.34;5052105;28;20562;-48
2022/09/05 01:26:59;;;;;;;10.18;3.13;;;;;;;26.69;40.17;100675.94;5052252;28;20116;-45
2022/09/05 01:29:40;;;;;;;8.95;3.08;;;;;;;26.79;39.49;100670.16;5049062;28;20418;-45
2022/09/05 01:32:20;;;;;;;10.38;3.05;;;;;;;26.53;40.41;100672.00;5034697;28;20033;-46
2022/09/05 01:35:00;;;;;;;10.98;3.13;;;;;;;26.50;40.18;100676.19;5050324;28;20582;-45
2022/09/05 01:37:53;;;;;;;9.85;3.50;;;;;;;26.58;39.90;100667.16;5037052;28;20036;-46
2022/09/05 01:40:37;;;;;;;11.98;3.50;;;;;;;26.45;39.91;100665.34;5037754;28;20399;-46
2022/09/05 01:43:24;;;;;;;8.38;3.22;;;;;;;26.46;40.48;100660.66;5051053;28;20422;-47
2022/09/05 01:45:53;;;;;;;11.07;4.03;;;;;;;25.96;41.28;100667.16;5035907;28;20121;-47
2022/09/05 01:48:55;;;;;;;11.45;3.85;;;;;;;25.63;42.42;100668.53;5036013;28;20051;-50
2022/09/05 01:51:24;;;;;;;9.75;3.75;;;;;;;25.51;42.66;100664.41;5049425;28;20033;-50
2022/09/05 01:54:04;;;;;;;9.77;3.72;;;;;;;25.59;42.78;100671.06;5051547;28;20537;-48
2022/09/05 01:56:50;;;;;;;8.10;3.25;;;;;;;25.28;43.02;100668.25;5050538;28;20033;-49
2022/09/05 01:59:37;;;;;;;14.82;4.25;;;;;;;25.00;43.56;100668.28;5010104;28;20044;-50
2022/09/05 02:02:36;;;;;;;12.40;3.88;;;;;;;25.21;43.37;100665.13;5051531;28;20125;-50
2022/09/05 02:05:02;;;;;;;9.35;4.28;;;;;;;24.93;43.81;100670.63;5051258;28;20037;-50
2022/09/05 02:07:52;;;;;;;11.55;3.90;;;;;;;24.71;44.36;100662.34;5049857;28;20479;-50
2022/09/05 02:10:33;;;;;;;13.75;4.70;;;;;;;24.41;44.98;100659.06;5037337;28;20056;-46
2022/09/05 02:13:20;;;;;;;14.73;4.65;;;;;;;24.61;44.42;100657.88;5040453;28;20116;-47
2022/09/05 02:15:59;;;;;;;15.20;4.00;;;;;;;24.44;44.96;100654.94;5034797;28;20044;-46
2022/09/05 02:19:06;;;;;;;11.57;4.43;;;;;;;24.29;45.05;100653.25;5040404;28;20037;-46
2022/09/05 02:21:34;;;;;;;10.57;4.13;;;;;;;23.92;45.81;100660.47;5025591;28;20033;-46
2022/09/05 02:24:22;;;;;;;18.35;4.65;;;;;;;23.90;46.40;100659.16;5057780;28;20032;-46
2022/09/05 02:27:43;;;;;;;16.20;4.75;;;;;;;23.95;46.09;100654.41;5051387;28;20029;-49
2022/09/05 02:30:25;;;;;;;13.35;4.95;;;;;;;23.63;47.02;100659.88;4989510;28;20490;-46
2022/09/05 02:33:03;;;;;;;13.70;4.90;;;;;;;23.34;47.62;100657.28;5034163;28;20557;-46
2022/09/05 02:35:37;;;;;;;15.45;4.63;;;;;;;23.01;48.76;100654.47;5038067;28;20086;-44
2022/09/05 02:38:11;;;;;;;17.88;5.72;;;;;;;23.12;48.54;100647.75;5035001;28;20057;-48
2022/09/05 02:40:55;;;;;;;13.35;4.82;;;;;;;23.05;49.03;100651.97;5048815;28;20079;-46
2022/09/05 02:43:21;;;;;;;15.15;5.28;;;;;;;22.80;49.45;100664.78;5050868;28;20099;-47
2022/09/05 02:46:15;;;;;;;21.35;5.82;;;;;;;22.55;50.11;100673.28;5042872;28;20207;-47
2022/09/05 02:49:27;;;;;;;14.23;5.25;;;;;;;22.71;49.42;100676.63;5031274;28;20037;-48
2022/09/05 02:52:07;;;;;;;13.15;4.85;;;;;;;22.35;50.43;100671.59;5037423;28;20545;-45
2022/09/05 02:54:39;;;;;;;19.45;5.05;;;;;;;22.09;51.64;100679.97;5049025;28;20037;-47
2022/09/05 02:57:31;;;;;;;15.70;5.13;;;;;;;21.93;52.08;100686.69;5045185;28;20064;-51
2022/09/05 03:00:12;;;;;;;18.83;5.10;;;;;;;21.89;52.55;100685.63;5054776;28;20096;-47
2022/09/05 03:03:00;;;;;;;20.13;5.72;;;;;;;21.90;52.59;100684.50;5054791;28;20017;-49
2022/09/05 03:05:33;;;;;;;16.40;5.35;;;;;;;21.49;54.02;100689.47;5054805;28;20074;-48
2022/09/05 03:08:48;;;;;;;17.67;5.45;;;;;;;21.48;53.87;100698.69;5049724;28;20454;-47
2022/09/05 03:11:32;;;;;;;17.67;5.65;;;;;;;21.44;54.07;100701.19;4973848;28;20031;-48
2022/09/05 03:14:05;;;;;;;13.82;5.53;;;;;;;21.21;54.91;100701.81;5054444;28;20327;-49
2022/09/05 03:17:01;;;;;;;17.17;5.35;;;;;;;21.14;55.11;100709.47;5054583;28;20037;-47
2022/09/05 03:20:05;;;;;;;24.38;5.82;;;;;;;21.06;55.24;100710.88;5054733;28;20082;-48
2022/09/05 03:23:18;;;;;;;15.82;5.15;;;;;;;21.05;55.29;100720.16;5054425;28;20060;-47
2022/09/05 03:26:05;;;;;;;19.95;6.15;;;;;;;20.87;56.27;100721.56;5054674;28;20325;-47
2022/09/05 03:29:12;;;;;;;23.13;5.97;;;;;;;20.79;56.52;100722.94;5039752;28;20057;-49
2022/09/05 03:32:02;;;;;;;21.48;5.32;;;;;;;20.69;56.96;100716.72;5034652;28;20383;-45
2022/09/05 03:34:37;;;;;;;19.95;5.70;;;;;;;20.57;57.18;100725.19;5058338;28;20120;-46
2022/09/05 03:37:33;;;;;;;15.23;5.82;;;;;;;20.35;57.82;100730.09;5034757;28;20021;-46
2022/09/05 03:40:20;;;;;;;20.15;5.13;;;;;;;20.36;58.05;100729.81;5047695;28;20025;-47
2022/09/05 03:43:04;;;;;;;22.08;5.60;;;;;;;20.38;58.02;100733.09;5044067;28;20507;-46
2022/09/05 03:45:37;;;;;;;30.45;5.90;;;;;;;20.58;57.84;100739.59;5046435;28;20040;-46
2022/09/05 03:48:39;;;;;;;21.52;6.03;;;;;;;20.47;58.00;100741.50;5056896;28;20028;-47
2022/09/05 03:51:17;;;;;;;20.00;7.75;;;;;;;20.49;58.16;100739.34;5053388;28;20486;-48
2022/09/05 03:54:09;;;;;;;26.60;8.10;;;;;;;20.49;57.80;100744.78;5034576;28;20036;-50
2022/09/05 03:56:50;;;;;;;18.83;6.88;;;;;;;20.61;57.77;100755.38;5051941;28;20028;-48
2022/09/05 03:59:35;;;;;;;17.67;6.18;;;;;;;20.48;58.15;100756.72;5053949;28;20051;-47
2022/09/05 04:02:09;;;;;;;17.67;5.60;;;;;;;20.58;58.11;100759.44;5052399;28;20039;-48
2022/09/05 04:04:41;;;;;;;25.80;7.13;;;;;;;20.62;58.35;100760.53;5046200;28;20384;-48
2022/09/05 04:07:26;;;;;;;25.45;6.47;;;;;;;20.48;59.01;100759.44;5054145;28;20033;-49
2022/09/05 04:10:07;;;;;;;25.00;6.50;;;;;;;20.34;59.68;100761.09;5054343;28;20487;-46
2022/09/05 04:13:13;;;;;;;16.42;5.82;;;;;;;20.25;60.47;100755.38;5042416;28;20514;-48
2022/09/05 04:15:45;;;;;;;19.30;6.50;;;;;;;20.35;60.32;100771.69;5036226;28;20388;-49
2022/09/05 04:18:27;;;;;;;18.27;6.60;;;;;;;20.24;60.98;100772.75;5036481;28;20084;-49
2022/09/05 04:21:00;;;;;;;15.75;5.13;;;;;;;20.16;61.10;100771.41;5033693;28;20097;-46
2022/09/05 04:23:59;;;;;;;17.20;5.97;;;;;;;20.15;61.63;100772.47;5033708;28;20432;-46
2022/09/05 04:26:45;;;;;;;18.88;5.80;;;;;;;20.21;61.07;100765.97;5033343;28;20032;-46
2022/09/05 04:29:37;;;;;;;15.65;5.78;;;;;;;20.00;61.95;100775.22;5037471;28;20048;-49
2022/09/05 04:32:22;;;;;;;25.35;6.03;;;;;;;20.13;61.38;100765.69;5053496;28;20044;-46
2022/09/05 04:35:03;;;;;;;21.77;5.95;;;;;;;19.95;61.93;100778.72;5046371;28;20020;-46
2022/09/05 04:37:35;;;;;;;22.80;6.28;;;;;;;19.99;61.83;100776.31;5041764;28;20022;-46
2022/09/05 04:40:30;;;;;;;19.52;6.25;;;;;;;20.02;61.54;100776.56;5033501;28;20135;-47
2022/09/05 04:43:17;;;;;;;23.30;5.70;;;;;;;19.77;61.96;100781.97;5027595;28;20053;-46
2022/09/05 04:45:57;;;;;;;19.40;6.13;;;;;;;19.85;61.65;100775.19;5034245;28;20033;-48
2022/09/05 04:48:32;;;;;;;22.85;6.28;;;;;;;19.78;61.84;100770.81;5032949;28;20017;-46
2022/09/05 04:51:07;;;;;;;21.52;6.35;;;;;;;19.86;61.50;100768.66;5034631;28;20052;-46
2022/09/05 04:53:37;;;;;;;24.55;6.07;;;;;;;19.95;61.32;100776.00;5051535;28;20036;-49
2022/09/05 04:56:14;;;;;;;23.85;5.85;;;;;;;19.82;62.05;100771.09;5031036;28;20044;-46
2022/09/05 04:58:48;;;;;;;22.13;5.88;;;;;;;19.75;62.09;100771.34;5032997;28;20026;-46
2022/09/05 05:01:22;;;;;;;26.75;6.53;;;;;;;19.80;62.39;100770.53;5035882;28;20114;-47
2022/09/05 05:03:48;;;;;;;23.30;6.50;;;;;;;19.71;62.76;100772.16;5038555;28;20553;-47
2022/09/05 05:06:27;;;;;;;22.30;6.25;;;;;;;19.95;61.84;100767.88;5040707;28;20036;-48
2022/09/05 05:08:59;;;;;;;19.77;5.55;;;;;;;19.74;62.42;100772.44;5052815;28;20100;-46
2022/09/05 05:11:56;;;;;;;24.15;6.50;;;;;;;19.70;62.69;100773.25;5042014;28;20028;-46
2022/09/05 05:14:36;;;;;;;18.73;6.28;;;;;;;19.64;62.54;100775.13;5032871;28;20352;-48
2022/09/05 05:17:09;;;;;;;17.40;5.70;;;;;;;19.52;63.36;100767.19;5032947;28;20752;-46
2022/09/05 05:19:50;;;;;;;20.65;6.53;;;;;;;19.74;62.91;100777.06;5032936;28;20048;-46
2022/09/05 05:22:17;;;;;;;21.33;5.88;;;;;;;19.47;64.08;100777.22;5032235;28;20044;-46
2022/09/05 05:24:54;;;;;;;25.95;6.90;;;;;;;19.58;63.50;100781.59;5051310;28;20025;-46
2022/09/05 05:27:32;;;;;;;16.23;6.50;;;;;;;19.51;63.30;100784.56;5050384;28;20787;-48
2022/09/05 05:30:08;;;;;;;20.55;6.70;;;;;;;19.21;63.73;100782.56;5032540;28;20046;-46
2022/09/05 05:32:43;;;;;;;22.98;5.85;;;;;;;19.51;62.29;100786.47;5032322;28;20043;-46
2022/09/05 05:35:15;;;;;;;20.20;6.38;;;;;;;19.46;63.01;100784.56;5033942;28;20036;-46
2022/09/05 05:37:46;;;;;;;25.38;6.13;;;;;;;19.48;62.69;100782.38;5032236;28;20032;-46
2022/09/05 05:40:15;;;;;;;26.05;6.45;;;;;;;19.49;63.22;100788.66;5031739;28;20071;-46
2022/09/05 05:42:42;;;;;;;18.83;6.30;;;;;;;19.44;63.59;100775.88;5031935;28;20025;-46
2022/09/05 05:45:31;;;;;;;22.38;6.63;;;;;;;19.57;64.16;100771.81;5039150;28;20111;-46
2022/09/05 05:48:12;;;;;;;25.23;6.68;;;;;;;19.54;64.37;100777.78;5052348;28;20055;-46
2022/09/05 05:50:41;;;;;;;20.58;7.03;;;;;;;19.52;64.57;100777.25;5052010;28;20033;-46
2022/09/05 05:53:34;;;;;;;20.70;6.78;;;;;;;19.44;64.91;100781.31;5034069;28;20108;-46
2022/09/05 05:56:09;;;;;;;22.38;6.72;;;;;;;19.29;65.14;100778.53;5033064;28;20037;-48
2022/09/05 05:58:51;;;;;;;19.58;6.70;;;;;;;19.44;64.68;100775.88;5050565;28;20494;-46
2022/09/05 06:02:03;;;;;;;22.63;6.65;;;;;;;19.43;64.76;100781.53;5031873;28;20033;-46
2022/09/05 06:04:38;;;;;;;22.95;6.55;;;;;;;19.23;65.59;100769.53;5031596;28;20037;-47
2022/09/05 06:07:22;;;;;;;;;;;;;;;19.33;65.30;100778.81;5032094;28;20037;-47
2022/09/05 06:10:15;;;;;;;22.20;6.72;;;;;;;19.15;66.19;100783.59;5031613;28;20313;-49
2022/09/05 06:13:13;;;;;;;20.27;6.45;;;;;;;19.11;66.49;100787.94;5045185;28;20036;-46
2022/09/05 06:16:09;;;;;;;25.08;6.72;;;;;;;19.37;65.86;100782.59;5019561;28;20037;-49
2022/09/05 06:19:06;;;;;;;25.27;7.15;;;;;;;19.33;65.85;100774.19;5045940;28;20029;-49
2022/09/05 06:21:57;;;;;;;21.50;7.10;;;;;;;19.19;66.78;100776.56;5054053;28;20425;-47
2022/09/05 06:24:59;;;;;;;18.33;6.75;;;;;;;19.24;66.20;100775.78;5051204;28;20063;-49
2022/09/05 06:27:48;;;;;;;19.92;6.00;;;;;;;19.37;66.39;100778.00;5051282;28;20428;-49
2022/09/05 06:30:22;;;;;;;19.30;5.75;;;;;;;19.30;66.42;100772.00;5039406;28;20045;-46
2022/09/05 06:33:09;;;;;;;18.90;6.80;;;;;;;19.48;66.17;100778.84;5042803;28;20078;-49
2022/09/05 06:35:57;;;;;;;22.58;5.95;;;;;;;19.48;66.41;100776.94;5041659;28;20054;-49
2022/09/05 06:38:27;;;;;;;19.60;6.47;;;;;;;19.53;66.29;100784.28;5057844;28;20021;-47
2022/09/05 06:41:02;;;;;;;21.58;6.53;;;;;;;19.46;66.34;100789.16;5047105;28;20029;-46
2022/09/05 06:43:39;;;;;;;;;;;;;;;19.46;66.60;100787.25;5058321;28;20525;-47
2022/09/05 06:46:08;;;;;;;21.08;5.70;;;;;;;19.49;66.63;100792.19;5057704;28;19940;-46
2022/09/05 06:48:43;;;;;;;20.58;6.30;;;;;;;19.31;67.50;100784.50;5046770;28;20013;-47
2022/09/05 06:51:21;;;;;;;18.73;5.70;;;;;;;19.12;68.45;100792.28;5037599;28;20029;-45
2022/09/05 06:54:11;;;;;;;24.20;7.10;;;;;;;19.17;68.34;100802.34;5051535;28;20029;-45
2022/09/05 06:56:43;;;;;;;27.25;6.95;;;;;;;19.44;67.29;100794.88;5057936;28;20035;-46
2022/09/05 07:00:00;;;;;;;30.33;7.15;;;;;;;19.32;67.48;100794.28;5057881;28;20017;-45
2022/09/05 07:02:38;;;;;;;19.60;6.00;;;;;;;19.33;67.39;100795.09;5023747;28;20037;-47
2022/09/05 07:05:19;;;;;;;27.38;6.70;;;;;;;19.04;68.78;100803.63;5057860;28;20468;-46
2022/09/05 07:07:53;;;;;;;22.73;7.22;;;;;;;19.19;68.34;100795.56;5057933;28;20103;-47
2022/09/05 07:10:28;;;;;;;21.27;7.43;;;;;;;19.12;68.49;100792.28;5057059;28;20028;-47
2022/09/05 07:13:19;;;;;;;20.23;6.53;;;;;;;19.12;67.98;100784.16;5057634;28;20345;-46
2022/09/05 07:16:11;;;;;;;27.38;6.38;;;;;;;19.29;67.38;100785.84;5057677;28;20039;-51
2022/09/05 07:18:49;;;;;;;22.35;6.50;;;;;;;19.31;66.76;100775.53;5054937;28;20444;-46
2022/09/05 07:21:23;;;;;;;21.27;6.53;;;;;;;19.07;67.52;100786.84;5057669;28;20483;-46
2022/09/05 07:24:17;;;;;;;18.75;6.30;;;;;;;19.08;67.29;100787.66;5056817;28;20498;-46
2022/09/05 07:26:47;;;;;;;23.73;6.90;;;;;;;18.86;67.82;100795.94;5036548;28;20065;-46
2022/09/05 07:29:19;;;;;;;25.38;7.38;;;;;;;18.81;68.15;100780.44;5037465;28;20121;-46
2022/09/05 07:31:50;;;;;;;19.77;6.65;;;;;;;18.93;67.80;100791.94;5039474;28;20116;-46
2022/09/05 07:34:34;;;;;;;17.65;6.63;;;;;;;18.88;67.38;100782.94;5046130;28;20043;-47
2022/09/05 07:37:15;;;;;;;28.02;6.97;;;;;;;18.82;67.92;100784.81;5057412;28;20112;-47
2022/09/05 07:40:00;;;;;;;26.65;6.80;;;;;;;18.86;67.72;100774.22;5054532;28;20025;-47
2022/09/05 07:42:40;;;;;;;26.65;6.82;;;;;;;19.07;66.86;100767.03;5053507;28;20021;-50
2022/09/05 07:45:24;;;;;;;21.92;6.38;;;;;;;18.95;67.74;100772.66;5053235;28;20043;-49
2022/09/05 07:47:55;;;;;;;31.52;8.07;;;;;;;18.87;67.89;100773.97;5054172;28;20398;-49
2022/09/05 07:50:22;;;;;;;24.38;6.80;;;;;;;18.83;68.36;100769.34;5050031;28;20550;-46
2022/09/05 07:52:49;;;;;;;30.98;6.85;;;;;;;18.90;68.20;100772.63;5053892;28;20036;-49
2022/09/05 07:55:35;;;;;;;22.70;7.47;;;;;;;18.75;68.77;100772.53;5052203;28;20520;-46
2022/09/05 07:58:06;;;;;;;29.30;6.30;;;;;;;19.03;67.34;100774.06;5054328;28;20074;-47
2022/09/05 08:00:35;;;;;;;22.50;6.50;;;;;;;18.88;67.61;100777.53;5036022;28;20025;-46
2022/09/05 08:03:14;;;;;;;27.33;6.68;;;;;;;18.91;67.55;100766.13;5033388;28;20021;-47
2022/09/05 08:05:53;;;;;;;18.90;5.75;;;;;;;19.03;67.12;100763.19;5033316;28;20372;-46
2022/09/05 08:08:25;;;;;;;27.38;6.65;;;;;;;19.02;66.96;100764.28;5034183;28;20022;-46
2022/09/05 08:11:03;;;;;;;26.60;7.30;;;;;;;18.93;67.59;100763.97;5051905;28;20029;-47
2022/09/05 08:14:02;;;;;;;22.95;6.53;;;;;;;19.19;66.72;100754.88;5051856;28;20033;-49
2022/09/05 08:16:30;;;;;;;24.10;6.75;;;;;;;19.01;67.00;100771.63;5052202;28;20049;-46
2022/09/05 08:19:29;;;;;;;19.63;6.03;;;;;;;19.11;66.79;100760.81;5051607;28;20025;-45
2022/09/05 08:21:58;;;;;;;24.67;6.15;;;;;;;19.06;66.81;100768.94;5037496;28;20079;-48
2022/09/05 08:24:38;;;;;;;30.33;6.63;;;;;;;18.93;67.56;100766.66;5039107;28;20086;-48
2022/09/05 08:27:07;;;;;;;27.13;6.97;;;;;;;18.86;67.81;100769.63;5052373;28;20024;-50
2022/09/05 08:29:37;;;;;;;18.92;6.22;;;;;;;19.02;67.42;100767.00;5047914;28;20037;-48
2022/09/05 08:32:11;;;;;;;32.58;6.28;;;;;;;19.04;67.46;100753.97;5037045;28;20025;-49
2022/09/05 08:35:14;;;;;;;17.13;5.85;;;;;;;19.03;67.62;100750.44;5046542;28;20061;-46
2022/09/05 08:37:43;;;;;;;25.45;6.65;;;;;;;18.87;68.38;100760.41;5011600;28;20095;-48
2022/09/05 08:40:34;;;;;;;21.70;7.10;;;;;;;18.89;67.57;100757.44;5042417;28;20080;-48
2022/09/05 08:43:24;;;;;;;23.10;6.55;;;;;;;18.96;67.28;100763.44;5043701;28;20039;-47
2022/09/05 08:46:04;;;;;;;22.00;6.00;;;;;;;18.96;67.32;100755.31;5039106;28;20048;-47
2022/09/05 08:48:36;;;;;;;23.95;5.18;;;;;;;18.95;67.45;100757.22;5046180;28;20108;-46
2022/09/05 08:51:31;;;;;;;24.35;6.57;;;;;;;18.81;68.71;100749.78;5035842;28;20151;-47
2022/09/05 08:54:15;;;;;;;27.05;6.57;;;;;;;18.72;68.79;100749.50;5023756;28;20052;-48
2022/09/05 08:57:20;;;;;;;24.88;6.38;;;;;;;18.88;68.02;100747.69;5033198;28;20025;-47
2022/09/05 09:00:05;;;;;;;20.65;6.78;;;;;;;18.80;68.00;100740.84;5033464;28;20103;-47
2022/09/05 09:03:03;;;;;;;25.33;7.07;;;;;;;18.67;69.35;100734.00;5036507;28;20032;-49
2022/09/05 09:05:48;;;;;;;22.98;6.18;;;;;;;18.73;68.81;100730.25;5033353;28;20033;-48
2022/09/05 09:08:27;;;;;;;19.47;6.67;;;;;;;18.80;67.94;100727.28;5037603;28;20313;-47
2022/09/05 09:10:56;;;;;;;22.50;5.82;;;;;;;18.84;67.96;100716.75;5050203;28;20298;-48
2022/09/05 09:14:15;;;;;;;30.90;7.05;;;;;;;18.87;67.42;100721.63;5048077;28;20029;-47
2022/09/05 09:17:06;;;;;;;20.55;5.68;;;;;;;19.02;67.00;100707.31;4952460;29;20035;-47
2022/09/05 09:20:05;;;;;;;14.80;5.15;;;;;;;18.92;67.66;100711.63;4952231;29;20023;-49
2022/09/05 09:22:45;;;;;;;19.38;5.07;;;;;;;18.88;67.17;100709.72;5034194;28;20053;-50
2022/09/05 09:25:21;;;;;;;22.80;5.82;;;;;;;18.90;66.50;100705.66;5041433;28;20351;-48
2022/09/05 09:28:07;;;;;;;21.77;5.95;;;;;;;18.90;66.30;100710.25;5034127;28;20302;-50
2022/09/05 09:30:35;;;;;;;15.38;5.30;;;;;;;18.95;65.76;100708.38;5038554;28;20044;-48
2022/09/05 09:33:05;;;;;;;17.33;5.32;;;;;;;18.93;65.33;100707.00;5032048;28;20395;-48
2022/09/05 09:35:53;;;;;;;17.65;5.32;;;;;;;18.89;65.13;100695.06;5031738;28;20033;-49
2022/09/05 09:38:44;;;;;;;14.90;4.28;;;;;;;18.97;64.13;100700.78;5041278;28;20026;-51
2022/09/05 09:41:25;;;;;;;19.33;4.53;;;;;;;19.04;62.69;100705.97;5047236;28;20025;-47
2022/09/05 09:44:04;;;;;;;11.57;3.70;;;;;;;18.99;61.68;100693.22;5035278;28;20037;-47
2022/09/05 09:46:44;;;;;;;8.88;3.38;;;;;;;18.63;57.68;100692.19;5035959;28;20025;-47
2022/09/05 09:49:28;;;;;;;6.40;2.70;;;;;;;19.05;56.97;100696.78;5047481;28;20033;-47
2022/09/05 09:52:11;;;;;;;5.90;2.80;;;;;;;19.03;56.98;100701.63;5036195;28;20035;-48
2022/09/05 09:55:01;;;;;;;10.38;3.17;;;;;;;18.91;57.66;100703.75;5050134;28;20455;-47
2022/09/05 09:57:55;;;;;;;6.25;2.40;;;;;;;18.88;57.57;100696.16;5034661;28;20491;-48
2022/09/05 10:00:23;;;;;;;6.28;2.45;;;;;;;18.86;58.09;100703.72;5047420;28;20021;-48
2022/09/05 10:03:01;;;;;;;4.03;2.13;;;;;;;18.86;57.99;100692.88;5044906;28;20072;-49
2022/09/05 10:05:57;;;;;;;4.60;2.72;;;;;;;18.81;57.59;100701.00;5031567;28;20033;-48
2022/09/05 10:08:32;;;;;;;7.20;2.67;;;;;;;18.72;57.44;100690.66;5030790;28;20099;-50
2022/09/05 10:11:19;;;;;;;7.13;2.38;;;;;;;18.67;57.37;100689.78;5050689;28;20025;-47
2022/09/05 10:14:11;;;;;;;4.07;2.15;;;;;;;18.62;57.52;100697.88;5050104;28;20143;-48
2022/09/05 10:17:04;;;;;;;4.45;2.03;;;;;;;18.77;57.16;100678.19;5050894;28;20033;-47
2022/09/05 10:20:03;;;;;;;6.97;2.17;;;;;;;18.64;56.53;100682.16;5026748;28;20466;-47
2022/09/05 10:23:00;;;;;;;5.45;2.15;;;;;;;18.58;56.90;100681.31;5050668;28;20082;-47
2022/09/05 10:25:50;;;;;;;5.10;2.47;;;;;;;18.60;57.11;100684.59;5050199;28;20028;-47
2022/09/05 10:29:01;;;;;;;5.30;1.80;;;;;;;18.57;57.09;100679.69;5046968;28;20037;-48
2022/09/05 10:31:59;;;;;;;5.57;2.70;;;;;;;18.45;57.58;100674.47;4979639;28;20080;-47
2022/09/05 10:34:34;;;;;;;5.90;2.58;;;;;;;18.43;58.26;100681.22;4980963;28;20027;-50
2022/09/05 10:37:04;;;;;;;10.88;3.72;;;;;;;18.42;58.94;100685.84;5002053;28;20037;-49
2022/09/05 10:39:37;;;;;;;10.40;4.00;;;;;;;18.42;59.41;100688.53;5031312;28;20034;-47
2022/09/05 10:42:07;;;;;;;10.98;3.28;;;;;;;18.42;59.41;100685.03;5039765;28;20025;-47
2022/09/05 10:44:39;;;;;;;9.95;3.28;;;;;;;18.43;59.81;100683.94;5040213;28;20068;-48
2022/09/05 10:47:18;;;;;;;10.20;3.70;;;;;;;18.44;60.32;100683.69;5041825;28;20431;-48
2022/09/05 10:49:50;;;;;;;11.95;3.80;;;;;;;18.40;60.57;100685.28;5042383;28;20116;-47
2022/09/05 10:52:42;;;;;;;11.32;4.07;;;;;;;18.36;60.68;100686.06;5050742;28;20276;-47
2022/09/05 10:55:35;;;;;;;7.78;3.65;;;;;;;18.33;60.90;100683.91;5043157;28;20032;-49
2022/09/05 10:58:10;;;;;;;11.57;3.63;;;;;;;18.37;60.78;100679.56;5033390;28;20036;-48
2022/09/05 11:01:13;;;;;;;9.95;3.47;;;;;;;18.36;60.89;100677.94;5046803;28;20029;-49
2022/09/05 11:04:10;;;;;;;10.85;3.80;;;;;;;18.31;61.32;100673.31;5042970;28;20129;-48
2022/09/05 11:06:42;;;;;;;10.52;4.05;;;;;;;18.28;61.35;100671.13;5051039;28;20215;-47
2022/09/05 11:09:22;;;;;;;8.13;3.70;;;;;;;18.30;61.25;100668.16;5046777;28;20125;-50
2022/09/05 11:12:11;;;;;;;11.23;3.58;;;;;;;18.31;61.32;100677.91;5030484;28;20048;-47
2022/09/05 11:14:49;;;;;;;12.98;3.78;;;;;;;18.19;62.30;100678.09;5042829;28;20043;-50
2022/09/05 11:17:24;;;;;;;9.45;3.80;;;;;;;18.19;62.05;100672.69;5040214;28;20032;-50
2022/09/05 11:20:22;;;;;;;11.57;3.95;;;;;;;18.31;62.35;100656.22;5053023;28;20033;-49
2022/09/05 11:22:53;;;;;;;13.70;4.03;;;;;;;18.29;62.16;100661.09;5050838;28;20490;-48
2022/09/05 11:25:23;;;;;;;8.55;3.35;;;;;;;18.27;62.46;100663.28;5036128;28;20468;-47
2022/09/05 11:27:54;;;;;;;8.77;3.85;;;;;;;18.25;62.16;100665.41;5034406;28;20040;-48
2022/09/05 11:30:30;;;;;;;8.95;3.72;;;;;;;18.20;62.40;100661.56;5047636;28;20037;-49
2022/09/05 11:32:59;;;;;;;8.38;3.88;;;;;;;18.20;62.24;100664.28;5034464;28;20107;-48
2022/09/05 11:35:28;;;;;;;7.15;3.15;;;;;;;18.18;62.10;100666.44;5034574;28;20041;-48
2022/09/05 11:38:09;;;;;;;11.13;3.45;;;;;;;18.15;61.88;100666.16;5034519;28;20042;-49
2022/09/05 11:40:56;;;;;;;8.00;3.47;;;;;;;18.11;62.05;100671.28;5034361;28;20033;-50
2022/09/05 11:43:44;;;;;;;7.75;3.38;;;;;;;18.12;62.07;100666.69;5035139;28;20395;-47
2022/09/05 11:46:27;;;;;;;12.85;4.07;;;;;;;18.09;61.62;100665.28;5038940;28;20090;-50
2022/09/05 11:49:05;;;;;;;9.13;3.15;;;;;;;18.12;61.60;100661.25;5063756;28;20084;-47
2022/09/05 11:51:45;;;;;;;7.53;3.20;;;;;;;18.06;62.05;100656.88;5047639;28;20135;-48
2022/09/05 11:54:44;;;;;;;7.22;3.60;;;;;;;18.09;61.52;100659.06;5044487;28;20037;-48
2022/09/05 11:57:35;;;;;;;6.32;3.20;;;;;;;18.02;61.83;100661.19;5034068;28;20100;-47
2022/09/05 12:00:19;;;;;;;7.50;3.03;;;;;;;18.14;60.89;100654.50;5046224;28;20040;-49
2022/09/05 12:03:04;;;;;;;5.07;2.75;;;;;;;18.05;61.22;100650.66;5041662;28;20102;-47
2022/09/05 12:05:51;;;;;;;;;;;;;;;18.03;61.10;100657.41;5049789;28;20493;-48
2022/09/05 12:08:47;;;;;;;4.75;2.50;;;;;;;17.97;61.43;100648.41;5038890;28;19913;-47
2022/09/05 12:11:37;;;;;;;5.20;2.25;;;;;;;18.14;59.29;100649.09;5041613;28;20538;-47
2022/09/05 12:14:27;;;;;;;2.72;1.80;;;;;;;18.33;57.65;100644.06;5051879;28;20055;-48
2022/09/05 12:17:42;;;;;;;4.68;2.10;;;;;;;18.35;56.87;100654.63;5046582;28;20114;-48
2022/09/05 12:20:14;;;;;;;5.35;2.17;;;;;;;18.34;56.89;100661.94;5046953;28;20033;-49
2022/09/05 12:23:25;;;;;;;2.88;1.65;;;;;;;18.19;57.89;100662.66;5034883;28;20036;-48
2022/09/05 12:26:23;;;;;;;6.05;2.30;;;;;;;18.29;56.92;100666.53;5032311;28;20558;-47
2022/09/05 12:28:56;;;;;;;5.38;1.88;;;;;;;18.06;58.29;100668.53;5013486;28;20037;-47
2022/09/05 12:31:38;;;;;;;5.50;1.85;;;;;;;18.23;57.33;100670.28;5047527;28;20243;-47
2022/09/05 12:34:11;;;;;;;4.07;2.20;;;;;;;18.40;56.05;100660.09;5051975;28;20027;-48